createdAt,value
2023-01-21T00:01:21.381Z,3.60
2023-01-21T00:03:49.915Z,4.20
2023-01-21T00:06:18.520Z,3.90
2023-01-21T00:08:46.901Z,4.60
2023-01-21T00:11:16.144Z,5.70
2023-01-21T00:13:44.991Z,4.60
2023-01-21T00:16:14.247Z,4.70
2023-01-21T00:18:43.193Z,4.40
2023-01-21T00:21:11.713Z,4.10
2023-01-21T00:23:40.651Z,3.40
2023-01-21T00:26:12.217Z,4.10
2023-01-21T00:28:43.830Z,4.30
2023-01-21T00:31:12.967Z,5.60
2023-01-21T00:33:41.560Z,4.90
2023-01-21T00:36:14.928Z,5.60
2023-01-21T00:38:43.831Z,3.90
2023-01-21T00:41:13.869Z,4.30
2023-01-21T00:43:42.801Z,4.70
2023-01-21T00:46:12.094Z,4.10
2023-01-21T00:48:40.756Z,5.50
2023-01-21T00:51:10.492Z,3.80
2023-01-21T00:53:42.325Z,4.00
2023-01-21T00:56:12.999Z,3.90
2023-01-21T00:58:43.668Z,4.40
2023-01-21T01:01:16.558Z,4.70
2023-01-21T01:03:46.785Z,4.40
2023-01-21T01:06:21.457Z,5.00
2023-01-21T01:08:51.119Z,4.30
2023-01-21T01:11:21.848Z,3.60
2023-01-21T01:13:50.320Z,4.40
2023-01-21T01:16:19.371Z,4.30
2023-01-21T01:18:47.930Z,4.50
2023-01-21T01:21:18.871Z,4.80
2023-01-21T01:23:49.437Z,5.10
2023-01-21T01:26:20.608Z,4.30
2023-01-21T01:28:49.474Z,4.00
2023-01-21T01:31:19.872Z,3.60
2023-01-21T01:33:49.017Z,3.90
2023-01-21T01:36:20.344Z,4.30
2023-01-21T01:38:48.910Z,4.60
2023-01-21T01:41:20.322Z,4.10
2023-01-21T01:43:55.636Z,4.40
2023-01-21T01:46:26.873Z,4.10
2023-01-21T01:49:18.419Z,5.10
2023-01-21T01:52:01.948Z,4.60
2023-01-21T01:54:36.080Z,4.50
2023-01-21T01:57:09.905Z,4.40
2023-01-21T01:59:39.367Z,4.90
2023-01-21T02:02:12.249Z,3.40
2023-01-21T02:04:50.258Z,4.20
2023-01-21T02:07:21.018Z,4.50
2023-01-21T02:09:49.720Z,4.30
2023-01-21T02:12:18.333Z,4.60
2023-01-21T02:14:48.351Z,3.70
2023-01-21T02:17:48.876Z,4.70
2023-01-21T02:20:42.863Z,3.90
2023-01-21T02:23:29.493Z,3.80
2023-01-21T02:26:22.412Z,4.50
2023-01-21T02:29:03.035Z,4.30
2023-01-21T02:32:05.365Z,4.20
2023-01-21T02:35:00.221Z,4.10
2023-01-21T02:37:34.721Z,3.60
2023-01-21T02:40:22.027Z,3.90
2023-01-21T02:43:22.531Z,4.00
2023-01-21T02:46:09.847Z,4.70
2023-01-21T02:49:11.621Z,4.20
2023-01-21T02:51:40.018Z,3.90
2023-01-21T02:54:35.528Z,3.20
2023-01-21T02:57:05.009Z,4.70
2023-01-21T02:59:35.245Z,4.20
2023-01-21T03:02:58.113Z,5.00
2023-01-21T03:05:41.701Z,4.50
2023-01-21T03:08:19.510Z,3.70
2023-01-21T03:10:56.923Z,3.80
2023-01-21T03:13:55.617Z,4.30
2023-01-21T03:16:48.753Z,4.00
2023-01-21T03:19:19.592Z,4.10
2023-01-21T03:21:49.340Z,4.60
2023-01-21T03:24:19.513Z,3.60
2023-01-21T03:26:52.741Z,3.90
2023-01-21T03:29:27.916Z,3.10
2023-01-21T03:32:05.369Z,3.50
2023-01-21T03:34:37.573Z,3.80
2023-01-21T03:37:13.805Z,3.50
2023-01-21T03:40:05.990Z,4.10
2023-01-21T03:42:34.601Z,4.10
2023-01-21T03:45:03.842Z,3.20
2023-01-21T03:47:36.793Z,3.30
2023-01-21T03:50:10.122Z,4.00
2023-01-21T03:52:43.819Z,3.80
2023-01-21T03:55:14.027Z,4.30
2023-01-21T03:57:42.513Z,4.10
2023-01-21T04:00:11.882Z,3.60
2023-01-21T04:02:40.704Z,3.50
2023-01-21T04:05:09.573Z,2.90
2023-01-21T04:07:38.106Z,3.80
2023-01-21T04:10:07.644Z,3.70
2023-01-21T04:12:36.160Z,3.80
2023-01-21T04:15:05.631Z,3.70
2023-01-21T04:17:34.219Z,3.60
2023-01-21T04:20:02.707Z,3.80
2023-01-21T04:22:31.136Z,2.90
2023-01-21T04:24:59.633Z,3.70
2023-01-21T04:27:28.182Z,4.10
2023-01-21T04:29:56.662Z,3.70
2023-01-21T04:32:25.100Z,3.10
2023-01-21T04:34:53.810Z,2.80
2023-01-21T04:37:22.305Z,2.50
2023-01-21T04:39:50.863Z,3.30
2023-01-21T04:42:19.335Z,4.10
2023-01-21T04:44:47.914Z,3.80
2023-01-21T04:47:16.346Z,3.40
2023-01-21T04:49:44.891Z,3.50
2023-01-21T04:52:13.369Z,2.90
2023-01-21T04:54:41.867Z,3.40
2023-01-21T04:57:11.146Z,3.00
2023-01-21T04:59:39.651Z,3.70
2023-01-21T05:02:09.064Z,3.30
2023-01-21T05:04:37.883Z,3.90
2023-01-21T05:07:06.430Z,3.30
2023-01-21T05:09:34.936Z,3.20
2023-01-21T05:12:03.636Z,3.60
2023-01-21T05:14:32.077Z,3.10
2023-01-21T05:17:00.961Z,3.40
2023-01-21T05:19:29.521Z,3.80
2023-01-21T05:21:57.957Z,3.60
2023-01-21T05:24:26.667Z,3.60
2023-01-21T05:26:55.184Z,3.40
2023-01-21T05:29:23.717Z,3.30
2023-01-21T05:31:52.263Z,3.70
2023-01-21T05:34:20.821Z,3.60
2023-01-21T05:36:49.302Z,3.60
2023-01-21T05:39:17.984Z,4.50
2023-01-21T05:41:46.444Z,2.60
2023-01-21T05:44:17.440Z,3.80
2023-01-21T05:46:46.409Z,4.40
2023-01-21T05:49:14.816Z,3.90
2023-01-21T05:51:43.219Z,3.60
2023-01-21T05:54:11.708Z,3.50
2023-01-21T05:56:40.186Z,3.50
2023-01-21T05:59:09.724Z,2.90
2023-01-21T06:01:38.167Z,3.40
2023-01-21T06:04:06.684Z,8.30
2023-01-21T06:06:35.217Z,12.40
2023-01-21T06:09:04.063Z,14.50
2023-01-21T06:11:32.603Z,11.70
2023-01-21T06:14:01.118Z,7.30
2023-01-21T06:16:29.621Z,7.90
2023-01-21T06:18:59.257Z,4.90
2023-01-21T06:21:27.704Z,4.00
2023-01-21T06:23:56.260Z,3.70
2023-01-21T06:26:26.960Z,4.60
2023-01-21T06:28:57.430Z,3.10
2023-01-21T06:31:26.109Z,2.60
2023-01-21T06:33:54.814Z,3.00
2023-01-21T06:36:23.534Z,4.00
2023-01-21T06:38:52.019Z,3.30
2023-01-21T06:41:20.444Z,3.80
2023-01-21T06:43:48.945Z,3.40
2023-01-21T06:46:17.510Z,2.40
2023-01-21T06:48:46.508Z,2.80
2023-01-21T06:51:15.091Z,3.40
2023-01-21T06:53:43.695Z,3.60
2023-01-21T06:56:12.248Z,2.90
2023-01-21T06:58:40.968Z,3.20
2023-01-21T07:01:09.496Z,2.20
2023-01-21T07:03:37.969Z,2.70
2023-01-21T07:06:06.793Z,3.30
2023-01-21T07:08:35.359Z,2.60
2023-01-21T07:11:03.944Z,3.20
2023-01-21T07:13:32.413Z,3.20
2023-01-21T07:16:01.621Z,2.60
2023-01-21T07:18:30.292Z,2.60
2023-01-21T07:20:58.900Z,3.70
2023-01-21T07:23:27.310Z,3.60
2023-01-21T07:25:55.857Z,6.30
2023-01-21T07:28:24.442Z,6.10
2023-01-21T07:30:53.008Z,3.30
2023-01-21T07:33:21.687Z,2.40
2023-01-21T07:35:50.817Z,2.90
2023-01-21T07:38:19.666Z,3.90
2023-01-21T07:40:49.622Z,2.70
2023-01-21T07:43:18.962Z,2.30
2023-01-21T07:45:47.602Z,2.30
2023-01-21T07:48:16.871Z,3.10
2023-01-21T07:50:45.433Z,2.90
2023-01-21T07:53:14.372Z,2.50
2023-01-21T07:55:42.862Z,3.00
2023-01-21T07:58:11.329Z,2.60
2023-01-21T08:00:39.808Z,2.30
2023-01-21T08:03:08.314Z,2.40
2023-01-21T08:05:36.788Z,2.40
2023-01-21T08:08:05.384Z,2.90
2023-01-21T08:10:33.902Z,2.40
2023-01-21T08:13:02.471Z,2.80
2023-01-21T08:15:30.998Z,2.50
2023-01-21T08:17:59.638Z,2.40
2023-01-21T08:20:28.400Z,2.80
2023-01-21T08:23:00.657Z,2.50
2023-01-21T08:25:29.307Z,2.70
2023-01-21T08:28:02.230Z,2.10
2023-01-21T08:30:31.303Z,2.10
2023-01-21T08:32:59.859Z,2.90
2023-01-21T08:35:28.375Z,2.20
2023-01-21T08:37:59.494Z,2.40
2023-01-21T08:40:28.214Z,2.30
2023-01-21T08:43:01.396Z,2.00
2023-01-21T08:45:30.514Z,2.70
2023-01-21T08:47:58.962Z,3.80
2023-01-21T08:50:27.441Z,3.70
2023-01-21T08:52:56.878Z,3.00
2023-01-21T08:55:27.137Z,2.10
2023-01-21T08:57:57.829Z,2.00
2023-01-21T09:00:26.750Z,2.50
2023-01-21T09:02:56.115Z,2.70
2023-01-21T09:05:24.656Z,2.50
2023-01-21T09:07:53.209Z,2.60
2023-01-21T09:10:40.386Z,2.40
2023-01-21T09:13:10.588Z,2.60
2023-01-21T09:15:41.261Z,2.30
2023-01-21T09:18:10.703Z,2.20
2023-01-21T09:20:40.908Z,2.00
2023-01-21T09:23:25.956Z,1.70
2023-01-21T09:26:00.637Z,2.20
2023-01-21T09:28:29.918Z,2.60
2023-01-21T09:31:00.116Z,2.10
2023-01-21T09:33:31.594Z,1.70
2023-01-21T09:36:03.476Z,2.00
2023-01-21T09:38:33.916Z,2.50
2023-01-21T09:41:34.890Z,3.40
2023-01-21T09:44:26.204Z,2.30
2023-01-21T09:47:25.841Z,1.60
2023-01-21T09:50:17.557Z,2.20
2023-01-21T09:52:54.928Z,2.30
2023-01-21T09:55:33.926Z,3.20
2023-01-21T09:58:05.082Z,2.50
2023-01-21T10:01:03.408Z,2.00
2023-01-21T10:03:39.300Z,2.30
2023-01-21T10:06:29.927Z,2.60
2023-01-21T10:09:46.128Z,2.10
2023-01-21T10:12:45.781Z,1.70
2023-01-21T10:15:42.681Z,2.60
2023-01-21T10:18:30.698Z,2.30
2023-01-21T10:21:18.896Z,2.40
2023-01-21T10:24:04.401Z,2.30
2023-01-21T10:26:35.716Z,1.80
2023-01-21T10:29:05.623Z,2.20
2023-01-21T10:31:43.371Z,2.30
2023-01-21T10:34:18.527Z,2.40
2023-01-21T10:37:13.312Z,2.20
2023-01-21T10:39:51.728Z,2.00
2023-01-21T10:42:35.345Z,2.80
2023-01-21T10:45:10.072Z,2.20
2023-01-21T10:48:02.291Z,2.30
2023-01-21T10:50:58.008Z,2.10
2023-01-21T10:53:56.865Z,1.90
2023-01-21T10:56:43.626Z,1.90
2023-01-21T10:59:21.973Z,2.00
2023-01-21T11:02:13.492Z,2.10
2023-01-21T11:04:42.365Z,2.00
2023-01-21T11:07:18.485Z,1.70
2023-01-21T11:09:49.790Z,2.00
2023-01-21T11:12:24.521Z,2.30
2023-01-21T11:15:13.370Z,2.50
2023-01-21T11:17:46.207Z,2.10
2023-01-21T11:20:30.134Z,2.60
2023-01-21T11:22:58.679Z,2.30
2023-01-21T11:26:00.375Z,2.80
2023-01-21T11:28:33.239Z,2.50
2023-01-21T11:31:11.703Z,3.50
2023-01-21T11:33:41.574Z,2.50
2023-01-21T11:36:17.117Z,1.80
2023-01-21T11:38:51.420Z,2.60
2023-01-21T11:41:23.407Z,2.20
2023-01-21T11:44:17.769Z,2.70
2023-01-21T11:46:47.745Z,2.10
2023-01-21T11:49:26.977Z,1.80
2023-01-21T11:52:17.236Z,2.00
2023-01-21T11:54:47.421Z,1.90
2023-01-21T11:57:31.875Z,1.90
2023-01-21T12:00:23.114Z,1.80
2023-01-21T12:03:00.725Z,2.30
2023-01-21T12:05:45.051Z,1.60
2023-01-21T12:08:26.208Z,2.80
2023-01-21T12:11:03.500Z,2.10
2023-01-21T12:13:58.748Z,2.00
2023-01-21T12:16:38.679Z,2.10
2023-01-21T12:19:32.063Z,2.00
2023-01-21T12:22:09.174Z,2.30
2023-01-21T12:24:59.467Z,2.00
2023-01-21T12:27:52.727Z,1.90
2023-01-21T12:30:52.316Z,2.00
2023-01-21T12:33:53.436Z,1.50
2023-01-21T12:36:31.435Z,1.60
2023-01-21T12:39:34.671Z,2.20
2023-01-21T12:42:16.478Z,2.10
2023-01-21T12:45:17.555Z,2.00
2023-01-21T12:48:01.891Z,1.90
2023-01-21T12:50:45.201Z,2.00
2023-01-21T12:53:28.162Z,2.60
2023-01-21T12:56:11.565Z,2.00
2023-01-21T12:59:03.273Z,2.60
2023-01-21T13:02:07.838Z,1.90
2023-01-21T13:05:16.869Z,2.20
2023-01-21T13:08:32.133Z,2.40
2023-01-21T13:11:06.776Z,2.30
2023-01-21T13:13:57.288Z,2.00
2023-01-21T13:16:29.530Z,2.60
2023-01-21T13:18:58.109Z,1.40
2023-01-21T13:21:52.891Z,1.90
2023-01-21T13:24:50.182Z,1.90
2023-01-21T13:27:32.063Z,2.90
2023-01-21T13:30:12.767Z,2.80
2023-01-21T13:32:58.197Z,3.10
2023-01-21T13:35:45.185Z,2.40
2023-01-21T13:39:01.896Z,2.50
2023-01-21T13:41:49.763Z,1.80
2023-01-21T13:44:21.376Z,1.90
2023-01-21T13:46:58.919Z,1.80
2023-01-21T13:49:39.501Z,2.20
2023-01-21T13:52:33.133Z,2.10
2023-01-21T13:55:26.671Z,1.90
2023-01-21T13:58:12.983Z,1.70
2023-01-21T14:00:51.535Z,2.00
2023-01-21T14:03:45.822Z,1.90
2023-01-21T14:06:32.411Z,1.80
2023-01-21T14:09:12.862Z,1.60
2023-01-21T14:11:55.014Z,2.40
2023-01-21T14:14:26.656Z,1.60
2023-01-21T14:17:29.317Z,1.40
2023-01-21T14:20:40.386Z,2.00
2023-01-21T14:23:20.585Z,2.20
2023-01-21T14:26:14.233Z,1.90
2023-01-21T14:29:10.082Z,1.80
2023-01-21T14:32:09.204Z,1.80
2023-01-21T14:34:40.679Z,1.80
2023-01-21T14:37:15.454Z,1.80
2023-01-21T14:39:49.931Z,2.30
2023-01-21T14:42:25.851Z,2.10
2023-01-21T14:44:54.311Z,2.60
2023-01-21T14:47:32.058Z,2.00
2023-01-21T14:50:00.698Z,2.20
2023-01-21T14:52:39.153Z,1.50
2023-01-21T14:55:33.747Z,1.40
2023-01-21T14:58:03.282Z,1.50
2023-01-21T15:00:37.142Z,1.60
2023-01-21T15:03:17.200Z,1.40
2023-01-21T15:05:52.607Z,1.90
2023-01-21T15:08:29.811Z,1.30
2023-01-21T15:11:20.674Z,1.40
2023-01-21T15:14:08.856Z,1.60
2023-01-21T15:16:40.342Z,1.70
2023-01-21T15:19:09.318Z,1.30
2023-01-21T15:21:41.039Z,1.10
2023-01-21T15:24:19.286Z,1.30
2023-01-21T15:27:19.865Z,1.50
2023-01-21T15:29:55.120Z,1.50
2023-01-21T15:32:36.245Z,1.30
2023-01-21T15:35:04.772Z,1.40
2023-01-21T15:37:41.746Z,1.60
2023-01-21T15:40:42.094Z,1.70
2023-01-21T15:43:44.703Z,1.20
2023-01-21T15:46:31.987Z,1.50
2023-01-21T15:49:16.699Z,2.20
2023-01-21T15:51:50.908Z,1.80
2023-01-21T15:54:46.286Z,1.60
2023-01-21T15:57:52.437Z,1.70
2023-01-21T16:00:38.708Z,1.70
2023-01-21T16:03:31.158Z,1.80
2023-01-21T16:06:10.947Z,1.40
2023-01-21T16:09:15.995Z,1.40
2023-01-21T16:11:59.849Z,1.80
2023-01-21T16:14:57.401Z,2.10
2023-01-21T16:17:45.846Z,1.70
2023-01-21T16:20:17.236Z,1.60
2023-01-21T16:22:53.333Z,2.20
2023-01-21T16:25:26.313Z,1.90
2023-01-21T16:27:57.099Z,2.00
2023-01-21T16:30:32.952Z,1.40
2023-01-21T16:33:13.353Z,2.00
2023-01-21T16:35:53.279Z,1.90
2023-01-21T16:38:32.108Z,1.60
2023-01-21T16:41:06.947Z,1.60
2023-01-21T16:43:46.134Z,1.90
2023-01-21T16:46:18.134Z,2.00
2023-01-21T16:48:59.673Z,2.00
2023-01-21T16:51:35.040Z,1.70
2023-01-21T16:54:20.643Z,1.80
2023-01-21T16:56:56.042Z,1.90
2023-01-21T16:59:39.385Z,1.80
2023-01-21T17:02:28.026Z,1.60
2023-01-21T17:05:07.652Z,1.30
2023-01-21T17:07:49.869Z,2.20
2023-01-21T17:10:41.261Z,2.30
2023-01-21T17:13:16.890Z,1.80
2023-01-21T17:16:03.404Z,1.80
2023-01-21T17:18:43.802Z,2.00
2023-01-21T17:21:24.495Z,2.10
2023-01-21T17:24:01.795Z,2.10
2023-01-21T17:26:45.389Z,2.00
2023-01-21T17:29:34.911Z,1.60
2023-01-21T17:32:22.590Z,2.00
2023-01-21T17:35:16.939Z,1.90
2023-01-21T17:37:53.224Z,1.90
2023-01-21T17:40:38.468Z,2.00
2023-01-21T17:43:53.997Z,2.10
2023-01-21T17:46:30.615Z,2.40
2023-01-21T17:49:14.953Z,3.10
2023-01-21T17:51:45.445Z,2.50
2023-01-21T17:54:32.551Z,2.00
2023-01-21T17:57:01.106Z,2.20
2023-01-21T17:59:38.426Z,2.50
2023-01-21T18:02:15.269Z,2.70
2023-01-21T18:04:44.601Z,2.70
2023-01-21T18:07:32.044Z,2.90
2023-01-21T18:10:03.605Z,1.90
2023-01-21T18:12:33.232Z,1.80
2023-01-21T18:15:01.887Z,2.40
2023-01-21T18:17:30.560Z,2.20
2023-01-21T18:19:59.363Z,2.50
2023-01-21T18:22:32.715Z,2.20
2023-01-21T18:25:03.481Z,2.20
2023-01-21T18:27:32.928Z,2.90
2023-01-21T18:30:07.695Z,2.30
2023-01-21T18:32:38.354Z,2.10
2023-01-21T18:35:08.767Z,2.10
2023-01-21T18:37:37.531Z,2.20
2023-01-21T18:40:07.674Z,2.00
2023-01-21T18:42:36.192Z,1.50
2023-01-21T18:45:07.888Z,1.80
2023-01-21T18:47:36.337Z,1.90
2023-01-21T18:50:05.279Z,2.20
2023-01-21T18:52:34.181Z,2.40
2023-01-21T18:55:02.748Z,1.70
2023-01-21T18:57:32.085Z,2.50
2023-01-21T19:00:00.748Z,2.10
2023-01-21T19:02:30.949Z,2.10
2023-01-21T19:04:59.931Z,1.70
2023-01-21T19:07:28.527Z,3.40
2023-01-21T19:09:59.231Z,3.20
2023-01-21T19:12:27.789Z,3.60
2023-01-21T19:14:56.347Z,3.10
2023-01-21T19:17:32.838Z,2.80
2023-01-21T19:20:02.473Z,3.00
2023-01-21T19:22:31.990Z,2.70
2023-01-21T19:25:00.514Z,2.10
2023-01-21T19:27:32.492Z,2.50
2023-01-21T19:30:01.822Z,2.20
2023-01-21T19:32:30.551Z,2.60
2023-01-21T19:34:59.136Z,1.80
2023-01-21T19:37:27.843Z,2.60
2023-01-21T19:39:56.350Z,2.40
2023-01-21T19:42:24.893Z,2.50
2023-01-21T19:44:53.397Z,2.20
2023-01-21T19:47:29.861Z,1.80
2023-01-21T19:49:58.528Z,2.20
2023-01-21T19:52:27.198Z,2.60
2023-01-21T19:54:55.795Z,2.00
2023-01-21T19:57:24.367Z,2.10
2023-01-21T19:59:54.412Z,2.40
2023-01-21T20:02:23.071Z,2.00
2023-01-21T20:04:53.101Z,1.70
2023-01-21T20:07:25.015Z,2.10
2023-01-21T20:09:53.457Z,2.10
2023-01-21T20:12:22.010Z,2.00
2023-01-21T20:14:50.486Z,1.90
2023-01-21T20:17:19.043Z,1.60
2023-01-21T20:19:47.767Z,2.00
2023-01-21T20:22:18.318Z,2.30
2023-01-21T20:24:46.802Z,2.20
2023-01-21T20:27:15.457Z,1.90
2023-01-21T20:29:55.553Z,2.60
2023-01-21T20:32:31.039Z,2.20
2023-01-21T20:34:59.503Z,2.90
2023-01-21T20:37:28.140Z,1.90
2023-01-21T20:39:56.645Z,2.40
2023-01-21T20:42:27.253Z,2.70
2023-01-21T20:44:55.965Z,2.10
2023-01-21T20:47:37.670Z,2.30
2023-01-21T20:50:22.304Z,2.40
2023-01-21T20:52:51.971Z,1.80
2023-01-21T20:55:25.035Z,2.30
2023-01-21T20:57:53.816Z,3.00
2023-01-21T21:00:27.050Z,2.80
2023-01-21T21:02:56.457Z,2.90
2023-01-21T21:05:28.265Z,2.90
2023-01-21T21:07:56.857Z,3.00
2023-01-21T21:10:34.700Z,2.30
2023-01-21T21:13:04.574Z,2.90
2023-01-21T21:15:38.080Z,3.10
2023-01-21T21:18:06.766Z,2.80
2023-01-21T21:20:41.005Z,2.10
2023-01-21T21:23:15.101Z,2.30
2023-01-21T21:25:49.597Z,1.90
2023-01-21T21:28:21.889Z,1.70
2023-01-21T21:30:50.617Z,1.60
2023-01-21T21:33:23.150Z,1.80
2023-01-21T21:35:52.019Z,2.30
2023-01-21T21:38:22.305Z,2.50
2023-01-21T21:40:53.445Z,2.10
2023-01-21T21:43:43.111Z,1.50
2023-01-21T21:46:31.747Z,2.00
2023-01-21T21:49:00.419Z,2.00
2023-01-21T21:51:32.376Z,2.20
2023-01-21T21:54:03.648Z,1.70
2023-01-21T21:56:33.207Z,3.00
2023-01-21T21:59:02.032Z,2.20
2023-01-21T22:01:37.286Z,2.10
2023-01-21T22:04:07.512Z,2.60
2023-01-21T22:06:37.312Z,1.80
2023-01-21T22:09:07.879Z,2.30
2023-01-21T22:11:37.881Z,2.30
2023-01-21T22:14:08.693Z,2.00
2023-01-21T22:16:38.302Z,1.90
2023-01-21T22:19:14.380Z,2.10
2023-01-21T22:21:45.488Z,2.50
2023-01-21T22:24:16.553Z,2.00
2023-01-21T22:26:49.475Z,1.90
2023-01-21T22:29:18.835Z,2.20
2023-01-21T22:31:47.463Z,2.10
2023-01-21T22:34:17.383Z,2.10
2023-01-21T22:36:53.260Z,2.20
2023-01-21T22:39:23.719Z,2.30
2023-01-21T22:41:56.246Z,2.80
2023-01-21T22:44:24.886Z,2.30
2023-01-21T22:46:54.480Z,2.40
2023-01-21T22:49:23.249Z,2.00
2023-01-21T22:51:52.789Z,2.80
2023-01-21T22:54:27.348Z,2.30
2023-01-21T22:56:59.728Z,1.80
2023-01-21T22:59:34.026Z,2.10
2023-01-21T23:02:06.027Z,2.10
2023-01-21T23:04:36.235Z,2.20
2023-01-21T23:07:05.532Z,2.30
2023-01-21T23:09:35.531Z,2.20
2023-01-21T23:12:06.723Z,1.80
2023-01-21T23:14:41.772Z,2.20
2023-01-21T23:17:17.177Z,1.50
2023-01-21T23:19:49.686Z,2.10
2023-01-21T23:22:27.816Z,2.10
2023-01-21T23:25:08.922Z,2.00
2023-01-21T23:27:40.541Z,1.90
2023-01-21T23:30:11.853Z,1.90
2023-01-21T23:32:48.208Z,2.00
2023-01-21T23:35:20.517Z,1.80
2023-01-21T23:37:54.199Z,2.00
2023-01-21T23:40:23.637Z,1.90
2023-01-21T23:42:53.540Z,2.60
2023-01-21T23:45:26.987Z,2.30
2023-01-21T23:48:00.348Z,1.40
2023-01-21T23:50:29.305Z,2.60
2023-01-21T23:52:59.702Z,2.30
2023-01-21T23:55:28.365Z,2.30
2023-01-21T23:57:58.121Z,2.10
